Time;durP1;ratioP1;P1;durP2;ratioP2;P2;SDS_P1;SDS_P2;PMS_P1;PMS_P2;Temp;Humidity;BMP_temperature;BMP_pressure;BME280_temperature;BME280_humidity;BME280_pressure;Samples;Min_cycle;Max_cycle;Signal;HPM_P1;HPM_P2
2021/06/09 00:02:20;;;;;;;3.03;2.73;;;16.40;99.90;;;;;;5049597;28;20663;-66
2021/06/09 00:04:48;;;;;;;3.23;2.93;;;16.50;99.90;;;;;;5065171;28;20310;-66
2021/06/09 00:07:15;;;;;;;3.93;3.20;;;16.40;99.90;;;;;;5049563;28;20232;-67
2021/06/09 00:09:43;;;;;;;3.10;2.90;;;16.30;99.90;;;;;;5049766;28;20271;-67
2021/06/09 00:12:13;;;;;;;3.40;3.10;;;16.30;99.90;;;;;;5049359;28;20290;-66
2021/06/09 00:14:40;;;;;;;3.97;3.17;;;16.30;99.90;;;;;;5050004;28;20242;-66
2021/06/09 00:17:08;;;;;;;3.33;3.00;;;16.30;99.90;;;;;;5049773;28;20235;-66
2021/06/09 00:19:36;;;;;;;3.40;2.80;;;16.30;99.90;;;;;;5049575;28;20243;-66
2021/06/09 00:22:04;;;;;;;3.10;2.80;;;16.20;99.90;;;;;;5049188;28;20250;-66
2021/06/09 00:24:32;;;;;;;3.00;2.70;;;16.20;99.90;;;;;;5029400;28;20240;-66
2021/06/09 00:27:00;;;;;;;3.77;3.00;;;16.30;99.90;;;;;;5031540;28;20229;-66
2021/06/09 00:29:29;;;;;;;3.20;2.90;;;16.20;99.90;;;;;;5049209;28;20547;-66
2021/06/09 00:31:56;;;;;;;4.10;2.70;;;16.20;99.90;;;;;;5049341;28;20600;-66
2021/06/09 00:34:24;;;;;;;3.23;2.80;;;16.10;99.90;;;;;;5049110;28;20338;-66
2021/06/09 00:36:51;;;;;;;3.20;2.40;;;16.20;99.90;;;;;;5049283;28;20238;-66
2021/06/09 00:39:19;;;;;;;2.73;2.53;;;16.20;99.90;;;;;;5049225;28;20248;-66
2021/06/09 00:41:50;;;;;;;3.30;3.00;;;16.20;99.90;;;;;;5048609;28;20247;-66
2021/06/09 00:44:17;;;;;;;3.20;2.57;;;16.10;99.90;;;;;;5049292;28;20259;-66
2021/06/09 00:46:46;;;;;;;3.37;2.90;;;16.10;99.90;;;;;;5048774;28;20236;-66
2021/06/09 00:49:14;;;;;;;2.60;2.40;;;16.00;99.90;;;;;;5048786;28;20236;-66
2021/06/09 00:51:42;;;;;;;3.00;2.80;;;16.00;99.90;;;;;;5048702;28;20576;-66
2021/06/09 00:54:09;;;;;;;2.93;2.60;;;16.00;99.90;;;;;;5048927;28;20270;-66
2021/06/09 00:56:38;;;;;;;5.73;2.90;;;16.00;99.90;;;;;;5049150;28;20335;-66
2021/06/09 00:59:06;;;;;;;2.60;2.40;;;16.00;99.90;;;;;;5063627;28;20247;-66
2021/06/09 01:01:34;;;;;;;3.23;2.97;;;16.00;99.90;;;;;;5048828;28;20248;-66
2021/06/09 01:04:05;;;;;;;2.63;2.43;;;15.90;99.90;;;;;;5048481;28;20691;-66
2021/06/09 01:06:33;;;;;;;2.70;2.50;;;16.00;99.90;;;;;;5048771;28;20718;-66
2021/06/09 01:09:00;;;;;;;4.47;2.60;;;16.00;99.90;;;;;;5048117;28;20236;-66
2021/06/09 01:11:29;;;;;;;2.90;2.70;;;16.00;99.90;;;;;;5048258;28;20259;-66
2021/06/09 01:13:57;;;;;;;2.93;2.60;;;16.00;99.90;;;;;;5048520;28;20599;-66
2021/06/09 01:16:25;;;;;;;3.40;2.73;;;15.90;99.90;;;;;;5048478;28;20236;-67
2021/06/09 01:18:53;;;;;;;2.80;2.60;;;15.80;99.90;;;;;;5048357;28;20239;-66
2021/06/09 01:21:27;;;;;;;4.47;2.93;;;15.90;99.90;;;;;;5048288;28;20706;-66
2021/06/09 01:23:55;;;;;;;3.00;2.80;;;15.80;99.90;;;;;;5047972;28;20609;-66
2021/06/09 01:26:25;;;;;;;5.17;2.90;;;15.80;99.90;;;;;;5048563;28;20234;-66
2021/06/09 01:28:53;;;;;;;3.47;3.17;;;15.70;99.90;;;;;;5047552;28;20255;-66
2021/06/09 01:31:22;;;;;;;3.70;2.97;;;15.70;99.90;;;;;;5048211;28;20823;-66
2021/06/09 01:33:50;;;;;;;3.10;2.90;;;15.60;99.90;;;;;;5057662;28;20245;-65
2021/06/09 01:36:20;;;;;;;3.50;2.97;;;15.60;99.90;;;;;;5048198;28;20318;-66
2021/06/09 01:38:49;;;;;;;2.90;2.70;;;15.70;99.90;;;;;;5047808;28;20270;-66
2021/06/09 01:41:21;;;;;;;3.97;2.93;;;15.60;99.90;;;;;;5048061;28;20231;-66
2021/06/09 01:43:51;;;;;;;4.03;2.90;;;15.60;99.90;;;;;;5047362;28;20339;-67
2021/06/09 01:46:19;;;;;;;3.23;3.00;;;15.50;99.90;;;;;;5048455;28;20645;-66
2021/06/09 01:48:48;;;;;;;3.33;3.07;;;15.50;99.90;;;;;;5047394;28;20240;-66
2021/06/09 01:51:16;;;;;;;4.13;3.20;;;15.50;99.90;;;;;;5047984;28;20269;-66
2021/06/09 01:53:44;;;;;;;4.40;3.10;;;15.40;99.90;;;;;;5047310;28;20266;-67
2021/06/09 01:56:13;;;;;;;4.40;2.90;;;15.50;99.90;;;;;;5048179;28;20854;-66
2021/06/09 01:58:40;;;;;;;5.70;2.97;;;15.50;99.90;;;;;;5047479;28;20231;-66
2021/06/09 02:01:14;;;;;;;3.20;2.90;;;15.50;99.90;;;;;;5047788;28;20242;-66
2021/06/09 02:03:42;;;;;;;2.63;2.43;;;15.40;99.90;;;;;;5047903;28;20239;-66
2021/06/09 02:06:10;;;;;;;3.00;2.80;;;15.30;99.90;;;;;;5048117;28;20668;-66
2021/06/09 02:08:39;;;;;;;2.93;2.70;;;15.40;99.90;;;;;;5046209;28;20242;-66
2021/06/09 02:11:07;;;;;;;3.63;2.47;;;15.30;99.90;;;;;;5047061;28;20231;-66
2021/06/09 02:13:36;;;;;;;3.50;2.83;;;15.40;99.90;;;;;;5045678;28;20253;-66
2021/06/09 02:16:05;;;;;;;3.57;2.70;;;15.40;99.90;;;;;;5047476;28;20242;-66
2021/06/09 02:18:33;;;;;;;3.33;2.97;;;15.30;99.90;;;;;;5046877;28;20232;-66
2021/06/09 02:21:03;;;;;;;2.90;2.70;;;15.40;99.90;;;;;;5047545;28;20243;-67
2021/06/09 02:23:33;;;;;;;2.80;2.60;;;15.40;99.90;;;;;;5046968;28;20235;-66
2021/06/09 02:26:01;;;;;;;3.30;2.33;;;15.40;99.90;;;;;;5047712;28;20244;-66
2021/06/09 02:28:31;;;;;;;3.10;2.80;;;15.30;99.90;;;;;;5046740;28;20266;-66
2021/06/09 02:31:00;;;;;;;4.30;2.90;;;15.30;99.90;;;;;;5047598;28;20232;-66
2021/06/09 02:33:28;;;;;;;3.30;2.97;;;15.20;99.90;;;;;;5046996;28;20239;-66
2021/06/09 02:35:57;;;;;;;3.30;3.00;;;15.10;99.90;;;;;;5047377;28;20305;-66
2021/06/09 02:38:25;;;;;;;4.63;3.10;;;15.10;99.90;;;;;;5046838;28;20238;-66
2021/06/09 02:40:55;;;;;;;4.67;3.10;;;15.10;99.90;;;;;;5047690;28;20260;-66
2021/06/09 02:43:31;;;;;;;6.33;3.10;;;15.20;99.90;;;;;;5046770;28;20285;-66
2021/06/09 02:46:09;;;;;;;4.07;3.00;;;15.10;99.90;;;;;;5047378;28;20242;-66
2021/06/09 02:48:40;;;;;;;3.43;3.00;;;15.20;99.90;;;;;;5046716;28;20235;-66
2021/06/09 02:51:09;;;;;;;3.10;2.80;;;15.20;99.90;;;;;;5047061;28;20236;-66
2021/06/09 02:53:43;;;;;;;4.23;3.17;;;15.00;99.90;;;;;;5045092;28;20239;-66
2021/06/09 02:56:19;;;;;;;7.43;3.40;;;15.00;99.90;;;;;;5047470;28;20314;-67
2021/06/09 02:58:57;;;;;;;3.40;3.20;;;15.00;99.90;;;;;;5046175;28;20277;-66
2021/06/09 03:01:30;;;;;;;3.47;3.17;;;15.10;99.90;;;;;;5046798;28;20289;-66
2021/06/09 03:04:08;;;;;;;4.00;3.17;;;14.90;99.90;;;;;;5047010;28;20243;-66
2021/06/09 03:06:42;;;;;;;4.53;2.67;;;14.90;99.90;;;;;;5046972;28;20278;-66
2021/06/09 03:09:17;;;;;;;3.00;2.80;;;14.90;99.90;;;;;;5046612;28;20543;-66
2021/06/09 03:11:52;;;;;;;3.70;3.20;;;15.00;99.90;;;;;;5046363;28;20243;-66
2021/06/09 03:17:16;;;;;;;3.50;3.20;;;15.00;99.90;;;;;;5046480;28;20259;-66
2021/06/09 03:19:49;;;;;;;3.70;3.20;;;14.90;99.90;;;;;;5046792;28;20709;-66
2021/06/09 03:22:25;;;;;;;4.20;3.33;;;15.00;99.90;;;;;;5046452;28;20584;-66
2021/06/09 03:24:56;;;;;;;3.60;3.30;;;15.00;99.90;;;;;;5027372;28;20268;-66
2021/06/09 03:27:31;;;;;;;5.70;3.43;;;14.90;99.90;;;;;;5031896;28;20228;-66
2021/06/09 03:30:04;;;;;;;3.37;3.10;;;14.90;99.90;;;;;;5049114;28;20243;-66
2021/06/09 03:32:37;;;;;;;5.00;3.10;;;14.90;99.90;;;;;;5050287;28;20640;-66
2021/06/09 03:35:10;;;;;;;3.40;3.10;;;15.00;99.90;;;;;;5050697;28;20549;-66
2021/06/09 03:37:46;;;;;;;3.60;3.00;;;15.00;99.90;;;;;;5050367;28;20301;-66
2021/06/09 03:40:18;;;;;;;3.77;3.47;;;15.00;99.90;;;;;;5050052;28;20747;-66
2021/06/09 03:42:51;;;;;;;4.00;3.10;;;15.00;99.90;;;;;;5050259;28;20273;-66
2021/06/09 03:45:23;;;;;;;3.30;3.00;;;15.00;99.90;;;;;;5050689;28;20243;-65
2021/06/09 03:47:54;;;;;;;4.23;3.50;;;15.00;99.90;;;;;;5050450;28;20260;-66
2021/06/09 03:50:24;;;;;;;4.33;3.17;;;15.20;99.90;;;;;;5050472;28;20695;-66
2021/06/09 03:52:53;;;;;;;3.60;3.30;;;15.30;99.90;;;;;;5049521;28;20293;-66
2021/06/09 03:55:23;;;;;;;3.17;2.90;;;15.30;99.90;;;;;;5050423;28;20594;-66
2021/06/09 03:57:53;;;;;;;3.40;3.10;;;15.40;99.90;;;;;;5049891;28;20243;-66
2021/06/09 04:00:22;;;;;;;3.33;3.10;;;15.40;99.90;;;;;;5050214;28;20246;-66
2021/06/09 04:02:53;;;;;;;4.17;3.33;;;15.40;99.90;;;;;;5049895;28;20667;-67
2021/06/09 04:05:23;;;;;;;3.73;3.43;;;15.40;99.90;;;;;;5049925;28;20236;-66
2021/06/09 04:07:54;;;;;;;3.57;2.90;;;15.40;99.90;;;;;;5049690;28;20240;-66
2021/06/09 04:10:22;;;;;;;3.57;3.23;;;15.40;99.90;;;;;;5049951;28;20235;-66
2021/06/09 04:12:50;;;;;;;5.13;3.47;;;15.40;99.90;;;;;;5049322;28;20243;-66
2021/06/09 04:15:19;;;;;;;6.20;3.60;;;15.40;99.90;;;;;;5050195;28;20637;-66
2021/06/09 04:17:49;;;;;;;6.20;3.43;;;15.50;99.90;;;;;;5049056;28;20243;-66
2021/06/09 04:20:25;;;;;;;4.07;3.40;;;15.60;99.90;;;;;;5049462;28;20246;-66
2021/06/09 04:22:53;;;;;;;4.17;3.60;;;15.60;99.90;;;;;;5050002;28;20251;-66
2021/06/09 04:25:21;;;;;;;4.77;3.67;;;15.60;99.90;;;;;;5049869;28;20235;-66
2021/06/09 04:27:50;;;;;;;3.33;3.03;;;15.60;99.90;;;;;;5048997;28;20240;-66
2021/06/09 04:30:21;;;;;;;4.40;3.70;;;15.60;99.90;;;;;;5049132;28;20239;-66
2021/06/09 04:32:51;;;;;;;6.80;4.23;;;15.70;99.90;;;;;;5049375;28;20294;-66
2021/06/09 04:35:21;;;;;;;3.50;3.20;;;15.80;99.90;;;;;;5049711;28;20245;-66
2021/06/09 04:37:49;;;;;;;5.17;3.23;;;15.80;99.90;;;;;;5049255;28;20235;-66
2021/06/09 04:40:20;;;;;;;3.87;3.47;;;15.90;99.90;;;;;;5048654;28;20297;-66
2021/06/09 04:42:49;;;;;;;3.60;3.23;;;15.90;99.90;;;;;;5063854;28;20643;-66
2021/06/09 04:45:18;;;;;;;3.83;3.53;;;16.00;99.90;;;;;;5049346;28;20232;-66
2021/06/09 04:47:46;;;;;;;4.13;3.77;;;16.10;99.90;;;;;;5048746;28;20243;-66
2021/06/09 04:50:17;;;;;;;5.13;3.50;;;16.10;99.90;;;;;;5048911;28;20537;-66
2021/06/09 04:52:46;;;;;;;4.87;4.07;;;16.20;99.90;;;;;;5048238;28;20321;-67
2021/06/09 04:55:15;;;;;;;3.70;3.40;;;16.30;99.90;;;;;;5049408;28;20266;-66
2021/06/09 04:57:42;;;;;;;4.17;3.77;;;16.40;99.90;;;;;;5047543;28;20228;-66
2021/06/09 05:00:12;;;;;;;3.53;3.23;;;16.50;99.90;;;;;;5047952;28;20286;-66
2021/06/09 05:02:40;;;;;;;6.47;4.77;;;16.60;99.90;;;;;;5047706;28;20232;-66
2021/06/09 05:05:09;;;;;;;5.53;3.70;;;16.90;99.90;;;;;;5048397;28;20266;-66
2021/06/09 05:07:37;;;;;;;7.07;4.27;;;17.10;99.90;;;;;;5047209;28;20616;-66
2021/06/09 05:10:08;;;;;;;4.80;4.20;;;17.20;99.90;;;;;;5046946;28;20247;-66
2021/06/09 05:12:42;;;;;;;4.27;3.83;;;17.50;99.90;;;;;;5046492;28;20275;-66
2021/06/09 05:15:11;;;;;;;5.53;3.93;;;17.80;99.90;;;;;;5045365;28;20236;-66
2021/06/09 05:17:43;;;;;;;4.30;3.80;;;18.10;99.90;;;;;;5045819;28;20255;-67
2021/06/09 05:20:19;;;;;;;6.93;3.83;;;18.30;99.90;;;;;;5046173;28;20244;-66
2021/06/09 05:22:49;;;;;;;4.57;3.33;;;18.40;99.90;;;;;;5046148;28;20532;-66
2021/06/09 05:25:20;;;;;;;3.70;3.40;;;18.40;99.90;;;;;;5047087;28;20236;-67
2021/06/09 05:27:49;;;;;;;5.53;3.67;;;18.50;99.90;;;;;;5045292;28;20260;-66
2021/06/09 05:30:20;;;;;;;4.83;3.43;;;18.60;99.90;;;;;;5046025;28;20290;-67
2021/06/09 05:32:48;;;;;;;3.67;3.37;;;18.50;99.90;;;;;;5045855;28;20255;-66
2021/06/09 05:35:17;;;;;;;5.40;3.40;;;18.50;99.90;;;;;;5046651;28;20262;-67
2021/06/09 05:37:45;;;;;;;4.47;3.47;;;18.60;99.90;;;;;;5046612;28;20235;-66
2021/06/09 05:40:17;;;;;;;3.60;3.30;;;18.70;99.90;;;;;;5046970;28;20237;-67
2021/06/09 05:42:47;;;;;;;3.57;3.27;;;18.80;99.90;;;;;;5046590;28;20336;-67
2021/06/09 05:45:24;;;;;;;5.80;3.20;;;18.90;99.90;;;;;;5044299;28;20238;-66
2021/06/09 05:47:51;;;;;;;3.83;3.43;;;18.80;99.90;;;;;;5046974;28;20709;-66
2021/06/09 05:50:22;;;;;;;3.70;3.30;;;18.90;99.90;;;;;;5047537;28;20795;-66
2021/06/09 05:52:52;;;;;;;4.37;3.23;;;19.00;99.90;;;;;;5046658;28;20242;-66
2021/06/09 05:55:22;;;;;;;4.07;3.20;;;19.00;99.90;;;;;;5048284;28;20238;-66
2021/06/09 05:57:52;;;;;;;4.07;2.83;;;19.10;99.90;;;;;;5046815;28;20237;-66
2021/06/09 06:00:23;;;;;;;3.30;3.00;;;19.10;99.90;;;;;;5046872;28;20713;-66
2021/06/09 06:02:51;;;;;;;3.13;2.33;;;19.20;99.90;;;;;;5047128;28;20578;-66
2021/06/09 06:05:20;;;;;;;2.90;2.53;;;19.20;99.90;;;;;;5047333;28;20772;-66
2021/06/09 06:07:50;;;;;;;2.80;2.60;;;19.30;99.90;;;;;;5046688;28;20266;-66
2021/06/09 06:10:20;;;;;;;2.87;2.67;;;19.30;99.90;;;;;;5040856;28;20372;-66
2021/06/09 06:12:51;;;;;;;3.23;2.90;;;19.40;99.90;;;;;;5056625;28;20718;-66
2021/06/09 06:15:18;;;;;;;2.73;2.43;;;19.40;99.90;;;;;;5046528;28;20234;-69
2021/06/09 06:17:47;;;;;;;2.73;2.53;;;19.60;99.90;;;;;;5046232;28;20258;-69
2021/06/09 06:20:15;;;;;;;3.37;2.67;;;20.20;99.90;;;;;;5047522;28;20238;-69
2021/06/09 06:22:44;;;;;;;3.63;2.70;;;20.70;99.90;;;;;;5046167;28;20254;-69
2021/06/09 06:25:16;;;;;;;2.67;2.47;;;21.10;99.90;;;;;;5047067;28;20235;-66
2021/06/09 06:27:44;;;;;;;3.10;2.90;;;21.40;99.90;;;;;;5046123;28;20665;-66
2021/06/09 06:30:16;;;;;;;3.33;3.03;;;21.70;99.90;;;;;;5042395;28;20243;-66
2021/06/09 06:32:50;;;;;;;2.83;2.53;;;22.00;99.90;;;;;;5042982;28;20300;-66
2021/06/09 06:35:19;;;;;;;4.50;2.53;;;22.30;99.90;;;;;;5029360;28;20238;-66
2021/06/09 06:37:49;;;;;;;4.10;2.67;;;22.30;99.90;;;;;;5031810;28;20231;-66
2021/06/09 06:40:20;;;;;;;3.30;2.90;;;22.20;99.90;;;;;;5044252;28;20249;-66
2021/06/09 06:42:50;;;;;;;2.13;2.00;;;22.10;99.90;;;;;;5043466;28;20642;-66
2021/06/09 06:45:20;;;;;;;4.27;2.57;;;22.20;99.90;;;;;;5046401;28;20634;-67
2021/06/09 06:47:51;;;;;;;2.30;2.10;;;22.50;99.90;;;;;;5045108;28;20258;-66
2021/06/09 06:50:21;;;;;;;2.53;2.33;;;22.70;99.90;;;;;;5046318;28;20286;-66
2021/06/09 06:52:50;;;;;;;3.03;2.37;;;22.70;99.90;;;;;;5046096;28;20246;-66
2021/06/09 06:55:23;;;;;;;2.93;2.00;;;22.80;99.90;;;;;;5045917;28;20708;-66
2021/06/09 06:57:51;;;;;;;2.10;2.00;;;23.20;99.90;;;;;;5046138;28;20247;-67
2021/06/09 07:00:22;;;;;;;3.10;1.90;;;24.00;99.90;;;;;;5046538;28;20594;-67
2021/06/09 07:02:52;;;;;;;2.03;1.80;;;24.40;99.90;;;;;;5047095;28;20373;-67
2021/06/09 07:05:22;;;;;;;1.87;1.70;;;24.40;99.90;;;;;;5050641;28;20265;-66
2021/06/09 07:07:50;;;;;;;2.40;2.20;;;24.10;99.90;;;;;;5050203;28;20262;-66
2021/06/09 07:10:20;;;;;;;3.00;2.20;;;23.80;99.90;;;;;;5050031;28;20311;-67
2021/06/09 07:12:49;;;;;;;2.60;2.00;;;23.80;99.90;;;;;;5048859;28;20637;-66
2021/06/09 07:15:19;;;;;;;2.27;1.97;;;23.70;99.90;;;;;;5050352;28;20278;-67
2021/06/09 07:17:50;;;;;;;2.30;2.10;;;23.60;99.90;;;;;;5035503;28;20242;-67
2021/06/09 07:20:21;;;;;;;2.80;1.90;;;23.40;99.90;;;;;;5049631;28;20645;-66
2021/06/09 07:22:51;;;;;;;2.50;2.00;;;23.40;99.90;;;;;;5049581;28;20297;-66
2021/06/09 07:25:20;;;;;;;2.17;1.97;;;24.00;99.90;;;;;;5048628;28;20232;-66
2021/06/09 07:27:51;;;;;;;2.20;1.70;;;24.50;99.90;;;;;;5046190;28;20322;-66
2021/06/09 07:30:24;;;;;;;3.10;1.80;;;24.80;99.90;;;;;;5046747;28;20286;-67
2021/06/09 07:32:53;;;;;;;1.87;1.73;;;25.20;99.90;;;;;;5045714;28;20350;-67
2021/06/09 07:35:21;;;;;;;2.07;1.77;;;25.40;99.90;;;;;;5047113;28;20309;-66
2021/06/09 07:37:50;;;;;;;2.20;1.93;;;25.60;99.90;;;;;;5046042;28;20241;-66
2021/06/09 07:40:23;;;;;;;1.70;1.60;;;25.80;99.90;;;;;;5046753;28;20269;-66
2021/06/09 07:42:57;;;;;;;1.70;1.60;;;25.90;99.90;;;;;;5046781;28;20248;-66
2021/06/09 07:45:26;;;;;;;2.13;1.60;;;25.90;99.90;;;;;;5046487;28;20681;-67
2021/06/09 07:47:57;;;;;;;1.70;1.57;;;25.90;99.90;;;;;;5046279;28;20274;-66
2021/06/09 07:50:27;;;;;;;2.47;1.80;;;26.00;99.90;;;;;;5046098;28;20239;-66
2021/06/09 07:52:57;;;;;;;1.60;1.50;;;26.00;99.90;;;;;;5046247;28;20246;-66
2021/06/09 07:55:26;;;;;;;1.60;1.50;;;26.50;99.90;;;;;;5046402;28;20245;-66
2021/06/09 07:57:58;;;;;;;3.07;2.00;;;26.30;99.90;;;;;;5044742;28;20281;-67
2021/06/09 08:00:26;;;;;;;2.37;1.70;;;26.40;99.90;;;;;;5046328;28;20617;-66
2021/06/09 08:02:57;;;;;;;3.10;2.17;;;26.70;99.90;;;;;;5045880;28;20659;-66
2021/06/09 08:05:26;;;;;;;2.00;1.50;;;27.00;99.90;;;;;;5046817;28;20641;-67
2021/06/09 08:07:54;;;;;;;1.67;1.57;;;27.20;99.90;;;;;;5046478;28;20607;-66
2021/06/09 08:10:40;;;;;;;1.70;1.60;;;27.20;99.90;;;;;;5046177;28;20852;-66
2021/06/09 08:13:09;;;;;;;1.70;1.60;;;27.40;99.90;;;;;;5045792;28;20239;-66
2021/06/09 08:15:37;;;;;;;2.50;1.77;;;27.60;99.90;;;;;;5045329;28;20273;-66
2021/06/09 08:18:07;;;;;;;2.63;1.60;;;27.90;99.90;;;;;;5046060;28;20721;-66
2021/06/09 08:20:52;;;;;;;1.50;1.40;;;28.00;99.90;;;;;;5036947;28;20341;-66
2021/06/09 08:23:20;;;;;;;3.30;1.63;;;27.90;99.90;;;;;;5045584;28;20267;-67
2021/06/09 08:25:48;;;;;;;2.47;1.70;;;28.00;99.80;;;;;;5060853;28;20249;-67
2021/06/09 08:28:19;;;;;;;2.97;1.77;;;27.70;98.50;;;;;;5045674;28;20247;-67
2021/06/09 08:30:46;;;;;;;8.87;2.10;;;27.80;99.90;;;;;;5045878;28;20246;-67
2021/06/09 08:33:16;;;;;;;9.67;2.93;;;27.80;99.70;;;;;;5045737;28;20237;-67
2021/06/09 08:35:46;;;;;;;5.40;2.40;;;27.80;99.00;;;;;;5046033;28;20578;-66
2021/06/09 08:38:14;;;;;;;4.23;2.10;;;28.00;99.80;;;;;;5044925;28;20317;-66
2021/06/09 08:40:41;;;;;;;3.47;1.80;;;28.40;99.70;;;;;;5045659;28;20284;-66
2021/06/09 08:43:10;;;;;;;3.47;1.83;;;28.60;99.60;;;;;;5045405;28;20310;-67
2021/06/09 08:45:38;;;;;;;4.50;2.03;;;29.30;99.00;;;;;;5045913;28;20244;-67
2021/06/09 08:48:06;;;;;;;3.57;2.00;;;29.40;99.40;;;;;;5046007;28;20377;-66
2021/06/09 08:50:36;;;;;;;4.50;1.63;;;29.70;96.80;;;;;;5045958;28;20242;-67
2021/06/09 08:53:09;;;;;;;2.20;1.47;;;29.50;97.50;;;;;;5045799;28;20750;-67
2021/06/09 08:55:37;;;;;;;2.67;1.47;;;29.50;97.30;;;;;;5046119;28;20277;-67
2021/06/09 08:58:07;;;;;;;1.70;1.57;;;29.80;96.80;;;;;;5045417;28;20242;-67
2021/06/09 09:00:38;;;;;;;2.03;1.50;;;29.70;96.60;;;;;;5041117;28;20232;-67
2021/06/09 09:03:06;;;;;;;1.40;1.30;;;29.50;92.90;;;;;;5040005;28;20334;-67
2021/06/09 09:05:37;;;;;;;2.17;1.50;;;29.30;94.80;;;;;;5042131;28;20506;-67
2021/06/09 09:08:05;;;;;;;3.33;1.50;;;29.40;95.00;;;;;;5044884;28;20227;-67
2021/06/09 09:10:34;;;;;;;3.03;1.50;;;29.60;93.50;;;;;;5044418;28;20317;-67
2021/06/09 09:13:03;;;;;;;1.40;1.17;;;29.60;94.10;;;;;;5044649;28;20231;-67
2021/06/09 09:15:31;;;;;;;1.30;1.20;;;29.50;94.80;;;;;;5045604;28;20645;-67
2021/06/09 09:18:00;;;;;;;1.73;1.60;;;29.60;93.80;;;;;;5045453;28;20238;-67
2021/06/09 09:20:30;;;;;;;1.40;1.27;;;29.80;93.60;;;;;;5045708;28;20330;-67
2021/06/09 09:23:01;;;;;;;2.10;1.90;;;30.00;92.60;;;;;;5045498;28;20243;-67
2021/06/09 09:25:31;;;;;;;2.00;1.57;;;29.80;92.40;;;;;;5045595;28;20958;-67
2021/06/09 09:28:02;;;;;;;1.80;1.70;;;29.80;93.80;;;;;;5045054;28;20249;-67
2021/06/09 09:30:31;;;;;;;2.23;1.70;;;29.90;93.50;;;;;;5044907;28;20306;-67
2021/06/09 09:33:03;;;;;;;1.60;1.50;;;29.60;91.70;;;;;;5042438;28;20582;-67
2021/06/09 09:35:33;;;;;;;2.80;1.60;;;30.00;93.20;;;;;;5044606;28;20597;-67
2021/06/09 09:38:18;;;;;;;6.40;1.30;;;30.50;93.10;;;;;;5042665;28;20785;-67
2021/06/09 09:41:04;;;;;;;1.47;1.37;;;30.90;93.60;;;;;;5043197;28;20735;-67
2021/06/09 09:43:57;;;;;;;2.40;1.73;;;30.90;91.90;;;;;;5043856;28;20655;-67
2021/06/09 09:46:30;;;;;;;1.50;1.20;;;31.00;92.80;;;;;;5032997;28;20232;-66
2021/06/09 09:49:01;;;;;;;2.17;1.10;;;31.20;88.40;;;;;;5042111;28;20332;-66
2021/06/09 09:51:30;;;;;;;1.60;1.13;;;31.60;90.40;;;;;;5043873;28;20538;-67
2021/06/09 09:54:02;;;;;;;1.80;1.07;;;31.70;90.70;;;;;;5044418;28;20326;-67
2021/06/09 09:56:31;;;;;;;1.77;1.50;;;31.90;88.00;;;;;;5042719;28;20318;-66
2021/06/09 09:59:02;;;;;;;7.07;1.60;;;31.50;85.40;;;;;;5043071;28;20283;-67
2021/06/09 10:01:32;;;;;;;3.27;1.23;;;31.70;90.20;;;;;;5043811;28;20607;-67
2021/06/09 10:04:01;;;;;;;3.97;1.33;;;31.80;90.00;;;;;;5044238;28;20252;-67
2021/06/09 10:06:34;;;;;;;2.60;1.33;;;32.10;90.40;;;;;;5043687;28;20244;-67
2021/06/09 10:09:14;;;;;;;4.90;1.40;;;32.20;88.60;;;;;;5043855;28;20291;-67
2021/06/09 10:11:44;;;;;;;2.17;1.20;;;32.50;88.60;;;;;;5042348;28;20241;-67
2021/06/09 10:14:18;;;;;;;1.43;1.30;;;32.50;86.30;;;;;;5041480;28;20236;-67
2021/06/09 10:16:47;;;;;;;1.53;1.20;;;32.50;88.80;;;;;;5044058;28;20267;-67
2021/06/09 10:19:16;;;;;;;1.47;1.23;;;32.60;87.40;;;;;;5034068;28;20690;-67
2021/06/09 10:21:47;;;;;;;2.53;1.30;;;32.50;86.70;;;;;;5042848;28;20584;-67
2021/06/09 10:24:18;;;;;;;3.87;1.60;;;32.40;87.30;;;;;;5041971;28;20649;-67
2021/06/09 10:26:52;;;;;;;1.93;1.60;;;32.30;85.30;;;;;;5043570;28;20321;-67
2021/06/09 10:29:22;;;;;;;1.67;1.40;;;32.40;85.30;;;;;;5042459;28;20234;-67
2021/06/09 10:31:52;;;;;;;3.73;2.30;;;32.70;86.80;;;;;;5043752;28;20582;-67
2021/06/09 10:34:23;;;;;;;3.00;1.70;;;32.30;80.90;;;;;;5044371;28;20244;-67
2021/06/09 10:36:52;;;;;;;2.00;1.60;;;32.30;83.10;;;;;;5043835;28;20264;-67
2021/06/09 10:39:23;;;;;;;1.83;1.50;;;32.50;81.90;;;;;;5043220;28;20242;-67
2021/06/09 10:41:53;;;;;;;1.60;1.50;;;32.60;82.60;;;;;;5038046;28;20293;-67
2021/06/09 10:44:23;;;;;;;2.10;1.53;;;32.80;83.20;;;;;;5041275;28;20719;-67
2021/06/09 10:46:54;;;;;;;3.23;1.40;;;33.10;84.30;;;;;;5043915;28;20331;-67
2021/06/09 10:49:23;;;;;;;2.10;1.40;;;33.40;85.10;;;;;;5043202;28;20233;-67
2021/06/09 10:51:53;;;;;;;2.40;2.20;;;33.40;83.30;;;;;;5040595;28;20329;-67
2021/06/09 10:54:24;;;;;;;2.20;2.00;;;33.00;77.90;;;;;;5043691;28;20236;-67
2021/06/09 10:56:54;;;;;;;2.17;1.90;;;32.90;79.40;;;;;;5041285;28;20243;-67
2021/06/09 10:59:25;;;;;;;2.10;1.83;;;33.10;83.30;;;;;;5043145;28;20237;-67
2021/06/09 11:02:01;;;;;;;2.10;1.90;;;33.30;78.90;;;;;;5041139;28;20454;-67
2021/06/09 11:04:34;;;;;;;3.07;2.10;;;33.20;81.10;;;;;;5043000;28;20628;-67
2021/06/09 11:07:02;;;;;;;2.47;2.13;;;33.30;76.20;;;;;;5044000;28;20341;-67
2021/06/09 11:09:32;;;;;;;2.93;2.20;;;32.90;80.20;;;;;;5042693;28;20236;-67
2021/06/09 11:12:21;;;;;;;3.20;2.10;;;32.90;79.40;;;;;;5041018;28;20239;-67
2021/06/09 11:14:52;;;;;;;3.80;2.20;;;33.20;79.40;;;;;;5042579;28;20247;-67
2021/06/09 11:17:39;;;;;;;3.13;2.00;;;33.40;80.90;;;;;;5042903;28;20325;-67
2021/06/09 11:20:16;;;;;;;2.60;2.20;;;33.20;80.50;;;;;;5042094;28;21678;-67
2021/06/09 11:22:59;;;;;;;2.10;1.90;;;32.60;81.30;;;;;;5042142;28;20236;-67
2021/06/09 11:25:32;;;;;;;2.20;2.00;;;32.30;80.00;;;;;;5043090;28;20268;-67
2021/06/09 11:28:03;;;;;;;3.00;2.10;;;32.10;81.60;;;;;;5040053;28;20719;-67
2021/06/09 11:30:50;;;;;;;3.33;2.30;;;31.60;80.60;;;;;;5043346;28;20734;-67
2021/06/09 11:33:51;;;;;;;2.90;2.70;;;31.20;82.10;;;;;;5043143;28;20235;-67
2021/06/09 11:36:40;;;;;;;4.40;2.33;;;30.70;80.40;;;;;;5043970;28;20292;-67
2021/06/09 11:39:20;;;;;;;3.20;2.53;;;31.30;80.60;;;;;;5042816;28;20249;-67
2021/06/09 11:41:51;;;;;;;4.27;2.37;;;31.00;81.00;;;;;;5037494;28;20242;-67
2021/06/09 11:44:42;;;;;;;3.67;2.43;;;31.00;80.40;;;;;;5043230;28;20244;-67
2021/06/09 11:47:23;;;;;;;2.57;2.13;;;31.20;81.50;;;;;;5038314;28;20475;-67
2021/06/09 11:49:52;;;;;;;2.23;2.03;;;31.60;82.30;;;;;;5040068;28;20291;-67
2021/06/09 11:52:20;;;;;;;2.60;2.00;;;31.50;84.10;;;;;;5046061;28;20238;-67
2021/06/09 11:55:09;;;;;;;3.20;2.20;;;31.50;84.50;;;;;;5046405;28;20584;-67
2021/06/09 11:57:38;;;;;;;3.70;2.63;;;31.40;85.20;;;;;;5043408;28;20295;-67
2021/06/09 12:00:08;;;;;;;3.13;2.50;;;31.00;83.50;;;;;;5046120;28;20245;-67
2021/06/09 12:02:36;;;;;;;2.80;2.33;;;30.80;82.30;;;;;;5046462;28;20720;-67
2021/06/09 12:05:05;;;;;;;2.60;2.37;;;30.50;85.50;;;;;;5047166;28;20276;-67
2021/06/09 12:07:35;;;;;;;2.70;2.50;;;30.40;86.50;;;;;;5045932;28;20790;-67
2021/06/09 12:10:10;;;;;;;2.90;2.70;;;30.80;86.00;;;;;;5046606;28;20267;-67
2021/06/09 12:12:39;;;;;;;3.27;2.97;;;30.90;86.10;;;;;;5045800;28;20253;-67
2021/06/09 12:15:09;;;;;;;3.53;3.23;;;31.00;85.90;;;;;;5047200;28;22876;-67
2021/06/09 12:17:40;;;;;;;2.60;2.40;;;31.30;84.60;;;;;;5046604;28;20295;-67
2021/06/09 12:20:12;;;;;;;2.97;2.77;;;30.90;85.90;;;;;;5046291;28;20760;-67
2021/06/09 12:22:42;;;;;;;3.17;2.93;;;30.80;85.20;;;;;;5045211;28;20242;-67
2021/06/09 12:25:12;;;;;;;4.13;3.13;;;30.80;86.40;;;;;;5045854;28;20330;-67
2021/06/09 12:27:45;;;;;;;2.70;2.50;;;30.40;85.60;;;;;;5033284;28;20248;-67
2021/06/09 12:30:21;;;;;;;3.40;2.80;;;30.10;87.20;;;;;;5037061;28;20255;-67
2021/06/09 12:32:50;;;;;;;3.60;3.30;;;29.70;89.30;;;;;;5037242;28;20243;-67
2021/06/09 12:35:20;;;;;;;4.27;3.03;;;29.70;87.50;;;;;;5037467;28;20247;-67
2021/06/09 12:37:50;;;;;;;4.47;3.40;;;29.90;88.90;;;;;;5035755;28;20602;-67
2021/06/09 12:40:23;;;;;;;3.90;3.30;;;29.70;88.50;;;;;;5036603;28;20299;-67
2021/06/09 12:42:55;;;;;;;3.43;3.13;;;29.50;90.20;;;;;;5037175;28;20273;-67
2021/06/09 12:45:24;;;;;;;3.97;3.10;;;29.40;90.40;;;;;;5036754;28;20244;-67
2021/06/09 12:47:53;;;;;;;2.83;2.63;;;29.20;89.90;;;;;;5036235;28;20252;-67
2021/06/09 12:50:24;;;;;;;4.33;3.07;;;29.20;91.00;;;;;;5035368;28;20248;-67
2021/06/09 12:52:53;;;;;;;3.30;3.10;;;29.30;90.30;;;;;;5036549;28;20271;-67
2021/06/09 12:55:26;;;;;;;3.50;3.20;;;29.10;91.40;;;;;;5052999;28;20925;-67
2021/06/09 12:57:56;;;;;;;3.53;3.10;;;28.80;92.10;;;;;;5036251;28;20240;-67
2021/06/09 13:00:31;;;;;;;4.07;3.77;;;28.60;91.50;;;;;;5035381;28;20768;-67
2021/06/09 13:03:17;;;;;;;5.03;3.97;;;28.60;92.10;;;;;;5036040;28;20362;-67
2021/06/09 13:05:54;;;;;;;4.67;4.00;;;28.40;92.00;;;;;;5036839;28;20244;-67
2021/06/09 13:08:25;;;;;;;5.20;3.77;;;28.40;92.70;;;;;;5034057;28;20325;-67
2021/06/09 13:11:00;;;;;;;5.60;4.27;;;28.40;92.60;;;;;;5036333;28;20608;-67